createdAt,value
2022-11-12T00:00:47.641Z,42.98
2022-11-12T00:03:15.554Z,43.02
2022-11-12T00:05:43.407Z,42.85
2022-11-12T00:08:12.863Z,42.92
2022-11-12T00:10:40.858Z,43.02
2022-11-12T00:13:08.770Z,42.81
2022-11-12T00:15:36.704Z,42.65
2022-11-12T00:18:04.763Z,42.55
2022-11-12T00:20:32.702Z,42.52
2022-11-12T00:23:00.652Z,42.87
2022-11-12T00:25:29.936Z,42.81
2022-11-12T00:28:02.600Z,42.58
2022-11-12T00:30:31.058Z,42.86
2022-11-12T00:32:59.441Z,42.90
2022-11-12T00:35:27.356Z,42.84
2022-11-12T00:37:56.759Z,42.72
2022-11-12T00:40:25.208Z,42.50
2022-11-12T00:42:54.583Z,42.85
2022-11-12T00:45:22.508Z,42.83
2022-11-12T00:47:50.396Z,42.70
2022-11-12T00:50:18.346Z,42.71
2022-11-12T00:52:46.319Z,42.55
2022-11-12T00:55:14.268Z,42.50
2022-11-12T00:57:42.189Z,42.78
2022-11-12T01:00:16.516Z,42.49
2022-11-12T01:02:50.484Z,42.62
2022-11-12T01:05:18.937Z,42.33
2022-11-12T01:07:49.409Z,42.28
2022-11-12T01:10:21.166Z,42.69
2022-11-12T01:12:49.214Z,42.36
2022-11-12T01:15:20.031Z,42.49
2022-11-12T01:17:47.944Z,42.66
2022-11-12T01:20:15.897Z,42.53
2022-11-12T01:22:43.795Z,42.39
2022-11-12T01:25:11.751Z,42.39
2022-11-12T01:27:39.639Z,42.26
2022-11-12T01:30:08.515Z,42.40
2022-11-12T01:32:38.182Z,42.61
2022-11-12T01:35:06.761Z,42.49
2022-11-12T01:37:43.476Z,42.33
2022-11-12T01:40:12.307Z,42.64
2022-11-12T01:42:40.226Z,42.69
2022-11-12T01:45:15.932Z,42.23
2022-11-12T01:47:45.345Z,42.70
2022-11-12T01:50:16.843Z,42.34
2022-11-12T01:52:46.184Z,42.51
2022-11-12T01:55:14.988Z,42.24
2022-11-12T01:57:44.004Z,42.33
2022-11-12T02:00:13.160Z,42.71
2022-11-12T02:02:41.210Z,42.50
2022-11-12T02:05:11.536Z,42.21
2022-11-12T02:07:40.726Z,42.50
2022-11-12T02:10:09.665Z,42.07
2022-11-12T02:12:54.938Z,42.47
2022-11-12T02:15:22.871Z,42.10
2022-11-12T02:17:50.811Z,42.19
2022-11-12T02:20:20.086Z,42.36
2022-11-12T02:22:49.369Z,42.22
2022-11-12T02:25:19.019Z,42.18
2022-11-12T02:27:46.899Z,42.28
2022-11-12T02:30:14.847Z,42.77
2022-11-12T02:32:42.810Z,42.45
2022-11-12T02:35:10.916Z,42.36
2022-11-12T02:37:38.829Z,42.54
2022-11-12T02:40:09.839Z,42.52
2022-11-12T02:42:37.711Z,42.66
2022-11-12T02:45:06.703Z,42.48
2022-11-12T02:47:34.674Z,42.43
2022-11-12T02:50:02.558Z,42.57
2022-11-12T02:52:30.469Z,42.47
2022-11-12T02:54:58.698Z,42.45
2022-11-12T02:57:29.830Z,42.25
2022-11-12T02:59:57.749Z,42.33
2022-11-12T03:02:25.603Z,42.33
2022-11-12T03:04:54.014Z,42.18
2022-11-12T03:07:21.862Z,42.47
2022-11-12T03:09:49.733Z,42.21
2022-11-12T03:12:17.640Z,42.09
2022-11-12T03:14:46.927Z,42.21
2022-11-12T03:17:14.791Z,42.23
2022-11-12T03:19:42.686Z,42.17
2022-11-12T03:22:10.535Z,42.33
2022-11-12T03:24:38.440Z,42.30
2022-11-12T03:27:06.320Z,42.35
2022-11-12T03:29:34.209Z,42.21
2022-11-12T03:32:03.525Z,42.22
2022-11-12T03:34:31.479Z,41.94
2022-11-12T03:36:59.364Z,42.29
2022-11-12T03:39:27.299Z,42.38
2022-11-12T03:41:55.241Z,42.14
2022-11-12T03:44:23.250Z,42.11
2022-11-12T03:46:51.181Z,42.26
2022-11-12T03:49:20.523Z,42.12
2022-11-12T03:51:48.491Z,42.10
2022-11-12T03:54:16.368Z,42.27
2022-11-12T03:56:44.336Z,42.39
2022-11-12T03:59:12.317Z,41.80
2022-11-12T04:01:40.298Z,41.86
2022-11-12T04:04:08.282Z,42.07
2022-11-12T04:06:54.971Z,41.80
2022-11-12T04:09:22.906Z,42.08
2022-11-12T04:11:50.810Z,42.13
2022-11-12T04:14:17.716Z,42.04
2022-11-12T04:17:03.255Z,41.80
2022-11-12T04:19:48.694Z,41.65
2022-11-12T04:22:18.038Z,42.01
2022-11-12T04:25:03.352Z,41.89
2022-11-12T04:27:32.374Z,41.81
2022-11-12T04:30:26.258Z,41.93
2022-11-12T04:32:55.427Z,41.72
2022-11-12T04:35:23.607Z,41.56
2022-11-12T04:37:52.939Z,41.85
2022-11-12T04:40:39.227Z,41.81
2022-11-12T04:43:25.758Z,42.20
2022-11-12T04:45:54.129Z,42.07
2022-11-12T04:48:22.166Z,41.68
2022-11-12T04:50:51.783Z,42.05
2022-11-12T04:53:23.868Z,42.00
2022-11-12T04:55:51.958Z,41.66
2022-11-12T04:58:20.266Z,41.77
2022-11-12T05:00:48.346Z,41.58
2022-11-12T05:03:16.251Z,41.59
2022-11-12T05:05:44.334Z,41.81
2022-11-12T05:08:12.287Z,41.42
2022-11-12T05:10:41.573Z,41.90
2022-11-12T05:13:09.424Z,41.42
2022-11-12T05:15:38.446Z,41.67
2022-11-12T05:18:06.403Z,41.47
2022-11-12T05:20:34.327Z,41.80
2022-11-12T05:23:07.170Z,41.72
2022-11-12T05:25:36.086Z,41.55
2022-11-12T05:28:07.043Z,41.75
2022-11-12T05:30:35.611Z,41.68
2022-11-12T05:33:04.946Z,41.81
2022-11-12T05:35:32.852Z,41.55
2022-11-12T05:38:00.935Z,41.42
2022-11-12T05:40:29.308Z,41.58
2022-11-12T05:42:57.153Z,41.64
2022-11-12T05:45:26.483Z,41.48
2022-11-12T05:47:54.397Z,41.81
2022-11-12T05:50:22.298Z,41.47
2022-11-12T05:52:50.204Z,41.82
2022-11-12T05:55:18.236Z,41.69
2022-11-12T05:57:46.143Z,41.85
2022-11-12T06:00:15.026Z,41.66
2022-11-12T06:02:44.360Z,41.75
2022-11-12T06:05:12.318Z,41.48
2022-11-12T06:07:40.806Z,41.84
2022-11-12T06:10:09.707Z,41.72
2022-11-12T06:12:37.603Z,41.90
2022-11-12T06:15:06.248Z,41.41
2022-11-12T06:17:34.222Z,41.40
2022-11-12T06:20:03.558Z,41.88
2022-11-12T06:22:31.401Z,41.61
2022-11-12T06:24:59.328Z,41.70
2022-11-12T06:27:27.284Z,41.87
2022-11-12T06:29:55.209Z,41.92
2022-11-12T06:32:23.156Z,41.94
2022-11-12T06:34:52.778Z,41.87
2022-11-12T06:37:22.295Z,41.93
2022-11-12T06:39:50.253Z,42.03
2022-11-12T06:42:18.149Z,41.85
2022-11-12T06:44:46.063Z,41.85
2022-11-12T06:47:13.931Z,41.82
2022-11-12T06:49:41.855Z,41.89
2022-11-12T06:52:13.711Z,41.93
2022-11-12T06:54:45.473Z,41.76
2022-11-12T06:57:13.449Z,42.12
2022-11-12T06:59:41.353Z,42.10
2022-11-12T07:02:09.314Z,41.89
2022-11-12T07:04:37.243Z,42.24
2022-11-12T07:07:10.270Z,42.49
2022-11-12T07:09:38.678Z,42.35
2022-11-12T07:12:10.816Z,42.51
2022-11-12T07:14:38.707Z,42.24
2022-11-12T07:17:06.622Z,42.45
2022-11-12T07:19:34.574Z,42.41
2022-11-12T07:22:02.730Z,42.44
2022-11-12T07:24:31.062Z,42.33
2022-11-12T07:26:58.975Z,42.35
2022-11-12T07:29:46.378Z,42.09
2022-11-12T07:32:15.584Z,41.74
2022-11-12T07:34:43.870Z,41.84
2022-11-12T07:37:11.717Z,41.88
2022-11-12T07:39:39.598Z,42.11
2022-11-12T07:42:07.472Z,41.74
2022-11-12T07:44:36.769Z,41.97
2022-11-12T07:47:04.715Z,42.01
2022-11-12T07:49:32.655Z,42.09
2022-11-12T07:52:00.564Z,42.31
2022-11-12T07:54:28.889Z,41.91
2022-11-12T07:56:56.814Z,42.04
2022-11-12T07:59:24.735Z,41.83
2022-11-12T08:01:54.094Z,41.82
2022-11-12T08:04:21.999Z,42.54
2022-11-12T08:06:50.453Z,42.89
2022-11-12T08:09:18.450Z,42.38
2022-11-12T08:11:46.386Z,42.69
2022-11-12T08:14:14.855Z,42.60
2022-11-12T08:16:42.787Z,42.30
2022-11-12T08:19:12.125Z,42.36
2022-11-12T08:21:40.039Z,43.31
2022-11-12T08:24:08.521Z,44.14
2022-11-12T08:26:36.452Z,43.65
2022-11-12T08:29:08.330Z,43.34
2022-11-12T08:31:36.672Z,43.47
2022-11-12T08:34:12.517Z,43.30
2022-11-12T08:36:43.021Z,43.36
2022-11-12T08:39:12.426Z,43.74
2022-11-12T08:41:40.377Z,43.62
2022-11-12T08:44:08.877Z,43.19
2022-11-12T08:46:36.956Z,43.07
2022-11-12T08:49:05.039Z,43.29
2022-11-12T08:51:33.009Z,43.29
2022-11-12T08:54:15.068Z,42.92
2022-11-12T08:56:43.144Z,42.73
2022-11-12T08:59:11.118Z,42.82
2022-11-12T09:01:39.121Z,42.77
2022-11-12T09:04:07.086Z,42.87
2022-11-12T09:06:35.069Z,42.31
2022-11-12T09:09:03.234Z,42.61
2022-11-12T09:11:32.530Z,42.18
2022-11-12T09:14:00.856Z,42.51
2022-11-12T09:16:28.767Z,42.27
2022-11-12T09:18:56.662Z,42.18
2022-11-12T09:21:24.925Z,42.46
2022-11-12T09:23:52.936Z,42.15
2022-11-12T09:26:20.979Z,42.35
2022-11-12T09:28:52.470Z,42.07
2022-11-12T09:31:20.508Z,41.95
2022-11-12T09:33:48.539Z,42.12
2022-11-12T09:36:17.769Z,42.10
2022-11-12T09:38:45.650Z,41.63
2022-11-12T09:41:21.292Z,41.70
2022-11-12T09:43:51.843Z,41.93
2022-11-12T09:46:28.669Z,41.88
2022-11-12T09:49:01.643Z,41.80
2022-11-12T09:51:30.839Z,41.82
2022-11-12T09:53:59.526Z,41.62
2022-11-12T09:56:28.250Z,41.68
2022-11-12T09:58:57.596Z,41.55
2022-11-12T10:01:32.057Z,41.78
2022-11-12T10:04:04.713Z,41.50
2022-11-12T10:06:35.966Z,41.31
2022-11-12T10:12:14.974Z,41.17
2022-11-12T10:14:56.547Z,41.47
2022-11-12T10:17:29.523Z,41.41
2022-11-12T10:20:02.612Z,41.07
2022-11-12T10:22:38.499Z,41.19
2022-11-12T10:25:15.316Z,41.29
2022-11-12T10:27:43.660Z,41.12
2022-11-12T10:30:18.010Z,41.11
2022-11-12T10:32:46.196Z,41.09
2022-11-12T10:35:16.206Z,41.23
2022-11-12T10:37:46.885Z,40.96
2022-11-12T10:40:34.733Z,40.83
2022-11-12T10:43:03.466Z,40.76
2022-11-12T10:45:33.092Z,41.08
2022-11-12T10:48:01.006Z,40.99
2022-11-12T10:50:31.222Z,40.90
2022-11-12T10:53:01.025Z,40.90
2022-11-12T10:55:30.376Z,40.82
2022-11-12T10:58:09.012Z,40.49
2022-11-12T11:00:38.617Z,40.65
2022-11-12T11:03:08.261Z,40.35
2022-11-12T11:05:39.473Z,40.48
2022-11-12T11:08:07.416Z,40.65
2022-11-12T11:10:36.217Z,40.51
2022-11-12T11:13:20.574Z,40.28
2022-11-12T11:16:12.333Z,40.02
2022-11-12T11:18:40.355Z,40.12
2022-11-12T11:21:17.472Z,40.03
2022-11-12T11:23:48.176Z,40.22
2022-11-12T11:26:25.444Z,40.18
2022-11-12T11:28:56.655Z,39.85
2022-11-12T11:31:30.336Z,39.92
2022-11-12T11:34:10.870Z,39.79
2022-11-12T11:36:41.494Z,39.68
2022-11-12T11:39:15.628Z,39.75
2022-11-12T11:41:50.029Z,39.84
2022-11-12T11:44:23.252Z,39.73
2022-11-12T11:46:59.672Z,39.37
2022-11-12T11:50:08.774Z,39.53
2022-11-12T11:52:46.871Z,39.33
2022-11-12T11:55:48.032Z,39.19
2022-11-12T11:58:24.905Z,39.58
2022-11-12T12:00:56.473Z,39.24
2022-11-12T12:03:31.767Z,39.38
2022-11-12T12:06:16.074Z,39.48
2022-11-12T12:08:53.087Z,39.14
2022-11-12T12:11:22.584Z,39.18
2022-11-12T12:14:00.831Z,38.92
2022-11-12T12:16:34.783Z,39.15
2022-11-12T12:19:07.656Z,39.22
2022-11-12T12:21:36.571Z,39.04
2022-11-12T12:24:06.330Z,39.02
2022-11-12T12:26:37.937Z,39.18
2022-11-12T12:29:08.264Z,39.03
2022-11-12T12:31:38.484Z,39.12
2022-11-12T12:34:11.460Z,39.15
2022-11-12T12:36:40.141Z,39.16
2022-11-12T12:39:14.973Z,39.10
2022-11-12T12:41:47.471Z,39.00
2022-11-12T12:44:15.444Z,39.13
2022-11-12T12:46:45.340Z,39.16
2022-11-12T12:49:17.825Z,39.15
2022-11-12T12:51:46.152Z,39.06
2022-11-12T12:54:58.199Z,39.00
2022-11-12T12:57:34.095Z,39.27
2022-11-12T13:00:28.147Z,38.96
2022-11-12T13:02:56.145Z,38.98
2022-11-12T13:05:36.149Z,39.06
2022-11-12T13:08:05.630Z,39.02
2022-11-12T13:10:48.069Z,39.16
2022-11-12T13:13:32.499Z,39.15
2022-11-12T13:16:01.616Z,39.20
2022-11-12T13:18:57.721Z,38.97
2022-11-12T13:21:27.155Z,39.15
2022-11-12T13:24:08.253Z,39.32
2022-11-12T13:26:50.483Z,38.91
2022-11-12T13:29:42.376Z,39.27
2022-11-12T13:32:35.202Z,38.84
2022-11-12T13:35:32.935Z,38.74
2022-11-12T13:38:03.454Z,38.95
2022-11-12T13:40:43.646Z,38.88
2022-11-12T13:43:18.962Z,38.96
2022-11-12T13:45:49.200Z,38.97
2022-11-12T13:48:19.316Z,39.11
2022-11-12T13:50:51.610Z,39.11
2022-11-12T13:53:23.382Z,38.82
2022-11-12T13:55:51.728Z,39.07
2022-11-12T13:58:28.329Z,38.59
2022-11-12T14:00:56.944Z,38.93
2022-11-12T14:03:25.774Z,38.67
2022-11-12T14:05:53.747Z,38.76
2022-11-12T14:08:33.374Z,38.65
2022-11-12T14:11:08.968Z,39.10
2022-11-12T14:13:44.962Z,38.68
2022-11-12T14:16:25.115Z,38.89
2022-11-12T14:19:14.420Z,38.95
2022-11-12T14:21:42.346Z,38.63
2022-11-12T14:24:12.176Z,38.73
2022-11-12T14:26:40.833Z,38.91
2022-11-12T14:29:08.931Z,38.92
2022-11-12T14:31:36.870Z,38.75
2022-11-12T14:34:22.889Z,38.66
2022-11-12T14:36:52.747Z,38.86
2022-11-12T14:39:22.117Z,38.78
2022-11-12T14:41:51.028Z,38.95
2022-11-12T14:44:20.652Z,38.88
2022-11-12T14:46:49.301Z,38.81
2022-11-12T14:49:20.762Z,38.79
2022-11-12T14:51:49.379Z,39.03
2022-11-12T14:54:35.555Z,38.76
2022-11-12T14:57:05.036Z,39.00
2022-11-12T14:59:33.112Z,38.92
2022-11-12T15:02:29.536Z,38.79
2022-11-12T15:04:55.905Z,39.05
2022-11-12T15:07:25.416Z,38.76
2022-11-12T15:09:53.407Z,39.03
2022-11-12T15:12:24.075Z,38.75
2022-11-12T15:14:52.355Z,38.77
2022-11-12T15:17:28.803Z,38.83
2022-11-12T15:20:02.058Z,38.60
2022-11-12T15:22:31.163Z,38.73
2022-11-12T15:25:11.141Z,38.72
2022-11-12T15:27:41.574Z,38.82
2022-11-12T15:30:16.106Z,38.55
2022-11-12T15:32:44.831Z,38.67
2022-11-12T15:35:35.022Z,38.34
2022-11-12T15:38:03.718Z,38.70
2022-11-12T15:40:31.660Z,38.45
2022-11-12T15:43:01.325Z,38.55
2022-11-12T15:45:29.275Z,38.45
2022-11-12T15:47:57.215Z,38.55
2022-11-12T15:50:25.562Z,38.45
2022-11-12T15:52:53.524Z,38.60
2022-11-12T15:55:21.550Z,38.53
2022-11-12T15:57:52.432Z,38.44
2022-11-12T16:00:22.774Z,38.18
2022-11-12T16:02:56.329Z,38.07
2022-11-12T16:05:24.336Z,38.16
2022-11-12T16:07:52.450Z,38.06
2022-11-12T16:10:20.440Z,38.06
2022-11-12T16:12:48.679Z,37.99
2022-11-12T16:15:18.372Z,37.90
2022-11-12T16:17:48.010Z,38.08
2022-11-12T16:20:17.107Z,38.18
2022-11-12T16:22:45.535Z,37.91
2022-11-12T16:25:30.147Z,38.05
2022-11-12T16:28:00.216Z,37.95
2022-11-12T16:30:29.048Z,38.08
2022-11-12T16:33:00.094Z,38.01
2022-11-12T16:35:28.420Z,37.64
2022-11-12T16:37:56.513Z,37.93
2022-11-12T16:40:33.560Z,37.84
2022-11-12T16:43:01.934Z,38.22
2022-11-12T16:45:33.680Z,38.11
2022-11-12T16:48:03.259Z,38.11
2022-11-12T16:50:31.225Z,38.14
2022-11-12T16:53:00.119Z,38.13
2022-11-12T16:55:28.143Z,37.84
2022-11-12T16:57:56.225Z,37.82
2022-11-12T17:00:24.415Z,38.23
2022-11-12T17:02:53.634Z,37.86
2022-11-12T17:05:24.283Z,37.83
2022-11-12T17:07:56.471Z,37.60
2022-11-12T17:10:25.332Z,37.46
2022-11-12T17:12:53.723Z,37.70
2022-11-12T17:15:21.821Z,37.52
2022-11-12T17:17:50.200Z,37.71
2022-11-12T17:20:18.127Z,37.76
2022-11-12T17:22:47.906Z,37.78
2022-11-12T17:25:16.246Z,37.86
2022-11-12T17:27:45.132Z,37.64
2022-11-12T17:30:16.404Z,37.40
2022-11-12T17:32:44.928Z,37.47
2022-11-12T17:35:12.917Z,37.50
2022-11-12T17:37:40.909Z,37.42
2022-11-12T17:40:11.469Z,37.56
2022-11-12T17:42:39.680Z,37.99
2022-11-12T17:45:08.724Z,37.97
2022-11-12T17:47:40.454Z,37.86
2022-11-12T17:50:09.908Z,37.81
2022-11-12T17:52:38.185Z,37.79
2022-11-12T17:55:06.903Z,37.79
2022-11-12T17:57:36.286Z,37.63
2022-11-12T18:00:07.326Z,37.49
2022-11-12T18:02:35.606Z,37.74
2022-11-12T18:05:04.020Z,37.73
2022-11-12T18:07:31.972Z,37.53
2022-11-12T18:10:01.910Z,37.67
2022-11-12T18:12:29.892Z,37.80
2022-11-12T18:15:00.121Z,37.46
2022-11-12T18:17:28.082Z,37.60
2022-11-12T18:19:56.109Z,37.38
2022-11-12T18:22:24.064Z,37.49
2022-11-12T18:24:53.247Z,37.84
2022-11-12T18:27:21.223Z,37.53
2022-11-12T18:29:50.774Z,37.60
2022-11-12T18:32:20.697Z,38.09
2022-11-12T18:34:48.957Z,37.63
2022-11-12T18:37:16.947Z,37.85
2022-11-12T18:39:45.375Z,37.96
2022-11-12T18:42:13.333Z,37.78
2022-11-12T18:44:41.881Z,37.80
2022-11-12T18:47:09.857Z,38.04
2022-11-12T18:49:39.544Z,37.89
2022-11-12T18:52:07.600Z,38.32
2022-11-12T18:54:35.816Z,37.88
2022-11-12T18:57:03.807Z,37.93
2022-11-12T18:59:32.965Z,38.13
2022-11-12T19:02:00.951Z,38.51
2022-11-12T19:04:30.201Z,38.66
2022-11-12T19:06:59.685Z,38.74
2022-11-12T19:09:29.753Z,38.30
2022-11-12T19:11:57.681Z,38.31
2022-11-12T19:14:25.999Z,38.73
2022-11-12T19:16:54.356Z,38.39
2022-11-12T19:19:22.485Z,38.31
2022-11-12T19:21:50.472Z,38.45
2022-11-12T19:24:20.641Z,38.06
2022-11-12T19:26:48.964Z,38.60
2022-11-12T19:29:17.621Z,38.22
2022-11-12T19:31:46.044Z,38.18
2022-11-12T19:34:15.551Z,38.11
2022-11-12T19:36:43.512Z,38.18
2022-11-12T19:39:11.577Z,38.11
2022-11-12T19:41:40.895Z,38.19
2022-11-12T19:44:09.155Z,38.34
2022-11-12T19:46:37.495Z,38.35
2022-11-12T19:49:05.814Z,38.17
2022-11-12T19:51:33.773Z,38.18
2022-11-12T19:54:01.753Z,38.43
2022-11-12T19:56:31.128Z,38.03
2022-11-12T19:59:00.548Z,38.26
2022-11-12T20:01:29.697Z,38.16
2022-11-12T20:03:57.735Z,38.31
2022-11-12T20:06:27.414Z,38.44
2022-11-12T20:08:55.417Z,38.53
2022-11-12T20:11:25.650Z,38.33
2022-11-12T20:13:53.726Z,38.08
2022-11-12T20:16:25.586Z,38.32
2022-11-12T20:18:55.038Z,38.12
2022-11-12T20:21:23.376Z,38.49
2022-11-12T20:23:51.352Z,38.14
2022-11-12T20:26:20.069Z,38.33
2022-11-12T20:28:48.779Z,38.18
2022-11-12T20:31:20.631Z,38.25
2022-11-12T20:33:50.376Z,38.16
2022-11-12T20:36:19.743Z,38.22
2022-11-12T20:38:49.918Z,38.50
2022-11-12T20:41:19.193Z,38.51
2022-11-12T20:43:47.212Z,38.51
2022-11-12T20:46:17.494Z,38.24
2022-11-12T20:48:45.514Z,38.24
2022-11-12T20:51:23.868Z,38.54
2022-11-12T20:53:58.919Z,38.28
2022-11-12T20:56:29.375Z,38.53
2022-11-12T20:58:57.566Z,38.26
2022-11-12T21:01:26.498Z,38.49
2022-11-12T21:03:54.935Z,38.26
2022-11-12T21:06:25.295Z,38.65
2022-11-12T21:08:53.474Z,38.35
2022-11-12T21:11:23.081Z,38.50
2022-11-12T21:16:19.163Z,38.47
2022-11-12T21:18:47.127Z,38.47
2022-11-12T21:21:16.402Z,38.60
2022-11-12T21:23:45.984Z,38.59
2022-11-12T21:26:16.516Z,38.28
2022-11-12T21:28:44.663Z,38.62
2022-11-12T21:31:15.371Z,38.61
2022-11-12T21:33:43.354Z,38.51
2022-11-12T21:36:16.407Z,38.69
2022-11-12T21:38:46.190Z,38.34
2022-11-12T21:41:17.448Z,38.20
2022-11-12T21:43:46.853Z,38.30
2022-11-12T21:46:16.701Z,38.60
2022-11-12T21:48:44.713Z,38.41
2022-11-12T21:51:15.015Z,38.39
2022-11-12T21:53:43.476Z,38.15
2022-11-12T21:56:14.959Z,38.20
2022-11-12T21:58:43.353Z,38.53
2022-11-12T22:01:12.659Z,38.54
2022-11-12T22:03:40.717Z,38.25
2022-11-12T22:06:09.643Z,38.46
2022-11-12T22:08:37.574Z,38.24
2022-11-12T22:11:07.488Z,38.44
2022-11-12T22:13:36.873Z,38.83
2022-11-12T22:16:09.023Z,38.59
2022-11-12T22:18:37.036Z,38.77
2022-11-12T22:21:06.028Z,38.90
2022-11-12T22:23:36.509Z,38.67
2022-11-12T22:26:04.740Z,38.58
2022-11-12T22:28:34.235Z,38.60
2022-11-12T22:31:07.733Z,38.60
2022-11-12T22:33:36.337Z,38.64
2022-11-12T22:36:04.444Z,38.61
2022-11-12T22:38:36.305Z,38.88
2022-11-12T22:41:05.313Z,38.92
2022-11-12T22:43:34.023Z,39.00
2022-11-12T22:46:21.704Z,38.88
2022-11-12T22:48:52.105Z,38.52
2022-11-12T22:51:20.834Z,38.51
2022-11-12T22:53:49.039Z,38.41
2022-11-12T22:56:17.529Z,38.37
2022-11-12T22:58:46.461Z,38.30
2022-11-12T23:01:20.655Z,38.38
2022-11-12T23:03:48.701Z,38.23
2022-11-12T23:06:16.769Z,38.06
2022-11-12T23:08:45.135Z,38.32
2022-11-12T23:11:14.363Z,38.45
2022-11-12T23:13:42.372Z,38.19
2022-11-12T23:16:11.312Z,38.05
2022-11-12T23:18:40.757Z,38.02
2022-11-12T23:21:09.508Z,37.93
2022-11-12T23:23:37.432Z,37.97
2022-11-12T23:26:05.847Z,38.13
2022-11-12T23:28:34.738Z,38.28
2022-11-12T23:31:03.519Z,38.31
2022-11-12T23:33:32.668Z,38.09
2022-11-12T23:36:09.033Z,38.00
2022-11-12T23:38:37.104Z,37.85
2022-11-12T23:41:05.344Z,38.05
2022-11-12T23:43:33.361Z,38.24
2022-11-12T23:46:01.313Z,37.94
2022-11-12T23:48:31.253Z,38.12
2022-11-12T23:51:03.629Z,37.79
2022-11-12T23:53:33.931Z,38.16
2022-11-12T23:56:01.900Z,37.76
2022-11-12T23:58:30.493Z,38.07
